sensor_id;sensor_type;location;lat;lon;timestamp;P1;durP1;ratioP1;P2;durP2;ratioP2
69744;SDS011;57015;50.120;-5.168;2022-12-18T00:02:12;2.95;;;0.93;;
69744;SDS011;57015;50.120;-5.168;2022-12-18T00:04:37;3.07;;;0.73;;
69744;SDS011;57015;50.120;-5.168;2022-12-18T00:07:03;3.05;;;1.00;;
69744;SDS011;57015;50.120;-5.168;2022-12-18T00:09:28;4.27;;;1.00;;
69744;SDS011;57015;50.120;-5.168;2022-12-18T00:11:54;2.77;;;0.80;;
69744;SDS011;57015;50.120;-5.168;2022-12-18T00:14:19;2.20;;;0.90;;
69744;SDS011;57015;50.120;-5.168;2022-12-18T00:16:45;3.00;;;1.10;;
69744;SDS011;57015;50.120;-5.168;2022-12-18T00:19:10;2.40;;;0.90;;
69744;SDS011;57015;50.120;-5.168;2022-12-18T00:21:39;2.28;;;0.80;;
69744;SDS011;57015;50.120;-5.168;2022-12-18T00:24:06;3.67;;;0.97;;
69744;SDS011;57015;50.120;-5.168;2022-12-18T00:26:32;3.08;;;0.80;;
69744;SDS011;57015;50.120;-5.168;2022-12-18T00:28:59;3.42;;;0.77;;
69744;SDS011;57015;50.120;-5.168;2022-12-18T00:31:25;3.73;;;0.80;;
69744;SDS011;57015;50.120;-5.168;2022-12-18T00:33:51;3.50;;;0.80;;
69744;SDS011;57015;50.120;-5.168;2022-12-18T00:36:26;2.95;;;0.90;;
69744;SDS011;57015;50.120;-5.168;2022-12-18T00:38:53;3.42;;;1.15;;
69744;SDS011;57015;50.120;-5.168;2022-12-18T00:41:19;2.85;;;1.02;;
69744;SDS011;57015;50.120;-5.168;2022-12-18T00:44:04;3.85;;;1.30;;
69744;SDS011;57015;50.120;-5.168;2022-12-18T00:46:31;3.37;;;1.20;;
69744;SDS011;57015;50.120;-5.168;2022-12-18T00:48:57;3.22;;;1.13;;
69744;SDS011;57015;50.120;-5.168;2022-12-18T00:51:22;3.23;;;1.30;;
69744;SDS011;57015;50.120;-5.168;2022-12-18T00:53:48;3.45;;;1.45;;
69744;SDS011;57015;50.120;-5.168;2022-12-18T00:56:13;3.33;;;0.93;;
69744;SDS011;57015;50.120;-5.168;2022-12-18T00:58:39;4.83;;;1.80;;
69744;SDS011;57015;50.120;-5.168;2022-12-18T01:01:04;4.23;;;2.00;;
69744;SDS011;57015;50.120;-5.168;2022-12-18T01:03:30;4.40;;;1.98;;
69744;SDS011;57015;50.120;-5.168;2022-12-18T01:05:56;4.73;;;2.00;;
69744;SDS011;57015;50.120;-5.168;2022-12-18T01:08:21;5.40;;;2.10;;
69744;SDS011;57015;50.120;-5.168;2022-12-18T01:10:46;8.88;;;2.58;;
69744;SDS011;57015;50.120;-5.168;2022-12-18T01:13:12;6.50;;;2.87;;
69744;SDS011;57015;50.120;-5.168;2022-12-18T01:15:37;7.53;;;3.57;;
69744;SDS011;57015;50.120;-5.168;2022-12-18T01:18:06;9.07;;;3.23;;
69744;SDS011;57015;50.120;-5.168;2022-12-18T01:20:32;8.38;;;3.92;;
69744;SDS011;57015;50.120;-5.168;2022-12-18T01:22:57;10.93;;;4.10;;
69744;SDS011;57015;50.120;-5.168;2022-12-18T01:25:23;8.85;;;4.22;;
69744;SDS011;57015;50.120;-5.168;2022-12-18T01:27:48;10.47;;;4.50;;
69744;SDS011;57015;50.120;-5.168;2022-12-18T01:30:13;15.00;;;6.23;;
69744;SDS011;57015;50.120;-5.168;2022-12-18T01:32:39;20.37;;;7.07;;
69744;SDS011;57015;50.120;-5.168;2022-12-18T01:35:04;13.70;;;6.47;;
69744;SDS011;57015;50.120;-5.168;2022-12-18T01:37:30;15.63;;;7.05;;
69744;SDS011;57015;50.120;-5.168;2022-12-18T01:39:56;16.17;;;6.63;;
69744;SDS011;57015;50.120;-5.168;2022-12-18T01:42:21;21.57;;;8.00;;
69744;SDS011;57015;50.120;-5.168;2022-12-18T01:52:55;19.43;;;7.33;;
69744;SDS011;57015;50.120;-5.168;2022-12-18T01:55:23;25.45;;;8.10;;
69744;SDS011;57015;50.120;-5.168;2022-12-18T01:57:55;17.88;;;7.15;;
69744;SDS011;57015;50.120;-5.168;2022-12-18T02:00:23;18.98;;;7.70;;
69744;SDS011;57015;50.120;-5.168;2022-12-18T02:02:49;19.33;;;7.80;;
69744;SDS011;57015;50.120;-5.168;2022-12-18T02:05:18;23.23;;;8.80;;
69744;SDS011;57015;50.120;-5.168;2022-12-18T02:18:36;21.15;;;7.07;;
69744;SDS011;57015;50.120;-5.168;2022-12-18T02:24:04;18.53;;;6.60;;
69744;SDS011;57015;50.120;-5.168;2022-12-18T02:26:50;16.00;;;6.18;;
69744;SDS011;57015;50.120;-5.168;2022-12-18T02:29:21;15.48;;;5.70;;
69744;SDS011;57015;50.120;-5.168;2022-12-18T02:31:52;17.95;;;6.80;;
69744;SDS011;57015;50.120;-5.168;2022-12-18T02:34:19;17.30;;;6.10;;
69744;SDS011;57015;50.120;-5.168;2022-12-18T02:36:47;18.40;;;7.90;;
69744;SDS011;57015;50.120;-5.168;2022-12-18T02:39:13;19.33;;;7.70;;
69744;SDS011;57015;50.120;-5.168;2022-12-18T02:41:40;21.38;;;7.57;;
69744;SDS011;57015;50.120;-5.168;2022-12-18T02:44:08;22.30;;;8.52;;
69744;SDS011;57015;50.120;-5.168;2022-12-18T02:46:36;22.50;;;7.70;;
69744;SDS011;57015;50.120;-5.168;2022-12-18T02:49:12;18.42;;;7.45;;
69744;SDS011;57015;50.120;-5.168;2022-12-18T02:55:08;20.95;;;6.82;;
69744;SDS011;57015;50.120;-5.168;2022-12-18T02:58:25;20.75;;;7.88;;
69744;SDS011;57015;50.120;-5.168;2022-12-18T03:05:37;24.00;;;8.93;;
69744;SDS011;57015;50.120;-5.168;2022-12-18T03:08:06;26.52;;;9.48;;
69744;SDS011;57015;50.120;-5.168;2022-12-18T03:10:34;27.20;;;10.27;;
69744;SDS011;57015;50.120;-5.168;2022-12-18T03:13:11;34.67;;;10.93;;
69744;SDS011;57015;50.120;-5.168;2022-12-18T03:15:41;28.47;;;10.17;;
69744;SDS011;57015;50.120;-5.168;2022-12-18T03:18:11;33.78;;;10.88;;
69744;SDS011;57015;50.120;-5.168;2022-12-18T03:20:40;36.30;;;10.90;;
69744;SDS011;57015;50.120;-5.168;2022-12-18T03:23:09;33.75;;;10.35;;
69744;SDS011;57015;50.120;-5.168;2022-12-18T03:25:39;28.15;;;11.35;;
69744;SDS011;57015;50.120;-5.168;2022-12-18T03:28:07;28.10;;;9.87;;
69744;SDS011;57015;50.120;-5.168;2022-12-18T03:30:39;28.73;;;10.98;;
69744;SDS011;57015;50.120;-5.168;2022-12-18T03:35:54;28.73;;;10.48;;
69744;SDS011;57015;50.120;-5.168;2022-12-18T03:38:20;29.27;;;11.07;;
69744;SDS011;57015;50.120;-5.168;2022-12-18T03:43:42;33.35;;;13.00;;
69744;SDS011;57015;50.120;-5.168;2022-12-18T03:48:59;33.00;;;11.68;;
69744;SDS011;57015;50.120;-5.168;2022-12-18T03:51:37;33.40;;;11.65;;
69744;SDS011;57015;50.120;-5.168;2022-12-18T03:54:08;32.07;;;12.07;;
69744;SDS011;57015;50.120;-5.168;2022-12-18T03:56:38;36.95;;;12.93;;
69744;SDS011;57015;50.120;-5.168;2022-12-18T03:59:08;39.50;;;13.35;;
69744;SDS011;57015;50.120;-5.168;2022-12-18T04:01:36;41.08;;;13.55;;
69744;SDS011;57015;50.120;-5.168;2022-12-18T04:04:03;39.05;;;14.35;;
69744;SDS011;57015;50.120;-5.168;2022-12-18T04:06:30;44.13;;;13.43;;
69744;SDS011;57015;50.120;-5.168;2022-12-18T04:08:56;35.92;;;12.43;;
69744;SDS011;57015;50.120;-5.168;2022-12-18T04:11:22;39.08;;;13.50;;
69744;SDS011;57015;50.120;-5.168;2022-12-18T04:13:48;39.47;;;13.07;;
69744;SDS011;57015;50.120;-5.168;2022-12-18T04:16:13;46.33;;;13.83;;
69744;SDS011;57015;50.120;-5.168;2022-12-18T04:18:38;37.73;;;13.27;;
69744;SDS011;57015;50.120;-5.168;2022-12-18T04:21:05;37.65;;;13.15;;
69744;SDS011;57015;50.120;-5.168;2022-12-18T04:23:30;39.50;;;12.60;;
69744;SDS011;57015;50.120;-5.168;2022-12-18T04:25:56;44.80;;;14.57;;
69744;SDS011;57015;50.120;-5.168;2022-12-18T04:28:21;39.33;;;12.73;;
69744;SDS011;57015;50.120;-5.168;2022-12-18T04:30:50;39.75;;;13.35;;
69744;SDS011;57015;50.120;-5.168;2022-12-18T04:33:18;40.75;;;13.65;;
69744;SDS011;57015;50.120;-5.168;2022-12-18T04:35:44;42.40;;;13.15;;
69744;SDS011;57015;50.120;-5.168;2022-12-18T04:38:09;39.72;;;14.10;;
69744;SDS011;57015;50.120;-5.168;2022-12-18T04:40:35;43.30;;;14.20;;
69744;SDS011;57015;50.120;-5.168;2022-12-18T04:43:01;45.33;;;15.32;;
69744;SDS011;57015;50.120;-5.168;2022-12-18T04:45:27;42.95;;;13.43;;
69744;SDS011;57015;50.120;-5.168;2022-12-18T04:47:53;35.03;;;12.77;;
69744;SDS011;57015;50.120;-5.168;2022-12-18T04:50:18;42.10;;;14.10;;
69744;SDS011;57015;50.120;-5.168;2022-12-18T04:52:43;42.77;;;13.77;;
69744;SDS011;57015;50.120;-5.168;2022-12-18T04:55:09;37.77;;;13.23;;
69744;SDS011;57015;50.120;-5.168;2022-12-18T04:57:34;49.75;;;14.38;;
69744;SDS011;57015;50.120;-5.168;2022-12-18T05:00:00;44.33;;;13.27;;
69744;SDS011;57015;50.120;-5.168;2022-12-18T05:02:25;39.03;;;13.57;;
69744;SDS011;57015;50.120;-5.168;2022-12-18T05:04:51;38.63;;;13.57;;
69744;SDS011;57015;50.120;-5.168;2022-12-18T05:07:16;33.13;;;12.60;;
69744;SDS011;57015;50.120;-5.168;2022-12-18T05:09:41;41.87;;;13.17;;
69744;SDS011;57015;50.120;-5.168;2022-12-18T05:12:07;42.30;;;14.07;;
69744;SDS011;57015;50.120;-5.168;2022-12-18T05:14:32;40.13;;;12.82;;
69744;SDS011;57015;50.120;-5.168;2022-12-18T05:16:58;37.73;;;12.50;;
69744;SDS011;57015;50.120;-5.168;2022-12-18T05:19:23;39.27;;;13.47;;
69744;SDS011;57015;50.120;-5.168;2022-12-18T05:21:48;41.83;;;13.40;;
69744;SDS011;57015;50.120;-5.168;2022-12-18T05:24:14;40.77;;;13.27;;
69744;SDS011;57015;50.120;-5.168;2022-12-18T05:26:39;36.20;;;11.87;;
69744;SDS011;57015;50.120;-5.168;2022-12-18T05:29:04;35.13;;;11.67;;
69744;SDS011;57015;50.120;-5.168;2022-12-18T05:31:30;34.93;;;12.07;;
69744;SDS011;57015;50.120;-5.168;2022-12-18T05:33:55;39.75;;;12.25;;
69744;SDS011;57015;50.120;-5.168;2022-12-18T05:36:20;42.58;;;12.93;;
69744;SDS011;57015;50.120;-5.168;2022-12-18T05:38:46;36.37;;;11.77;;
69744;SDS011;57015;50.120;-5.168;2022-12-18T05:41:11;38.03;;;11.97;;
69744;SDS011;57015;50.120;-5.168;2022-12-18T05:43:37;38.17;;;11.87;;
69744;SDS011;57015;50.120;-5.168;2022-12-18T05:46:07;38.78;;;12.57;;
69744;SDS011;57015;50.120;-5.168;2022-12-18T05:48:33;34.75;;;11.75;;
69744;SDS011;57015;50.120;-5.168;2022-12-18T05:51:06;34.67;;;12.17;;
69744;SDS011;57015;50.120;-5.168;2022-12-18T05:53:32;32.22;;;12.40;;
69744;SDS011;57015;50.120;-5.168;2022-12-18T05:56:01;39.03;;;12.20;;
69744;SDS011;57015;50.120;-5.168;2022-12-18T05:58:28;36.30;;;11.57;;
69744;SDS011;57015;50.120;-5.168;2022-12-18T06:00:53;36.17;;;11.97;;
69744;SDS011;57015;50.120;-5.168;2022-12-18T06:03:18;35.93;;;11.73;;
69744;SDS011;57015;50.120;-5.168;2022-12-18T06:05:44;36.57;;;11.77;;
69744;SDS011;57015;50.120;-5.168;2022-12-18T06:08:10;30.75;;;10.40;;
69744;SDS011;57015;50.120;-5.168;2022-12-18T06:10:37;37.33;;;11.98;;
69744;SDS011;57015;50.120;-5.168;2022-12-18T06:13:02;42.37;;;12.20;;
69744;SDS011;57015;50.120;-5.168;2022-12-18T06:15:28;37.35;;;11.23;;
69744;SDS011;57015;50.120;-5.168;2022-12-18T06:17:54;34.83;;;11.40;;
69744;SDS011;57015;50.120;-5.168;2022-12-18T06:20:19;27.57;;;9.63;;
69744;SDS011;57015;50.120;-5.168;2022-12-18T06:22:45;36.05;;;10.38;;
69744;SDS011;57015;50.120;-5.168;2022-12-18T06:25:10;30.77;;;11.27;;
69744;SDS011;57015;50.120;-5.168;2022-12-18T06:27:36;27.43;;;10.07;;
69744;SDS011;57015;50.120;-5.168;2022-12-18T06:30:01;30.67;;;10.27;;
69744;SDS011;57015;50.120;-5.168;2022-12-18T06:32:27;30.52;;;9.85;;
69744;SDS011;57015;50.120;-5.168;2022-12-18T06:34:53;33.17;;;9.00;;
69744;SDS011;57015;50.120;-5.168;2022-12-18T06:37:20;26.48;;;9.10;;
69744;SDS011;57015;50.120;-5.168;2022-12-18T06:39:46;28.53;;;8.67;;
69744;SDS011;57015;50.120;-5.168;2022-12-18T06:42:11;32.90;;;8.98;;
69744;SDS011;57015;50.120;-5.168;2022-12-18T06:44:36;28.58;;;9.43;;
69744;SDS011;57015;50.120;-5.168;2022-12-18T06:47:02;27.53;;;8.50;;
69744;SDS011;57015;50.120;-5.168;2022-12-18T06:49:27;32.10;;;9.07;;
69744;SDS011;57015;50.120;-5.168;2022-12-18T06:51:52;29.67;;;9.00;;
69744;SDS011;57015;50.120;-5.168;2022-12-18T06:54:18;28.40;;;8.37;;
69744;SDS011;57015;50.120;-5.168;2022-12-18T06:56:45;27.35;;;8.52;;
69744;SDS011;57015;50.120;-5.168;2022-12-18T06:59:10;27.27;;;8.00;;
69744;SDS011;57015;50.120;-5.168;2022-12-18T07:01:37;29.38;;;7.65;;
69744;SDS011;57015;50.120;-5.168;2022-12-18T07:04:02;24.37;;;8.10;;
69744;SDS011;57015;50.120;-5.168;2022-12-18T07:06:27;25.67;;;7.67;;
69744;SDS011;57015;50.120;-5.168;2022-12-18T07:08:53;23.02;;;6.10;;
69744;SDS011;57015;50.120;-5.168;2022-12-18T07:11:19;21.58;;;6.45;;
69744;SDS011;57015;50.120;-5.168;2022-12-18T07:13:45;22.70;;;5.47;;
69744;SDS011;57015;50.120;-5.168;2022-12-18T07:16:11;14.50;;;3.83;;
69744;SDS011;57015;50.120;-5.168;2022-12-18T07:18:38;23.17;;;4.23;;
69744;SDS011;57015;50.120;-5.168;2022-12-18T07:21:04;23.33;;;4.10;;
69744;SDS011;57015;50.120;-5.168;2022-12-18T07:23:31;21.48;;;4.78;;
69744;SDS011;57015;50.120;-5.168;2022-12-18T07:26:00;25.58;;;3.92;;
69744;SDS011;57015;50.120;-5.168;2022-12-18T07:28:32;23.73;;;4.10;;
69744;SDS011;57015;50.120;-5.168;2022-12-18T07:31:02;25.92;;;5.30;;
69744;SDS011;57015;50.120;-5.168;2022-12-18T07:33:31;20.73;;;4.97;;
69744;SDS011;57015;50.120;-5.168;2022-12-18T07:36:01;26.90;;;4.90;;
69744;SDS011;57015;50.120;-5.168;2022-12-18T07:38:28;20.50;;;4.35;;
69744;SDS011;57015;50.120;-5.168;2022-12-18T07:40:54;36.85;;;5.22;;
69744;SDS011;57015;50.120;-5.168;2022-12-18T07:43:20;26.30;;;4.97;;
69744;SDS011;57015;50.120;-5.168;2022-12-18T07:45:45;20.57;;;4.50;;
69744;SDS011;57015;50.120;-5.168;2022-12-18T07:48:10;22.60;;;3.97;;
69744;SDS011;57015;50.120;-5.168;2022-12-18T07:50:36;23.53;;;4.43;;
69744;SDS011;57015;50.120;-5.168;2022-12-18T07:53:02;23.85;;;4.35;;
69744;SDS011;57015;50.120;-5.168;2022-12-18T07:55:30;31.40;;;5.03;;
69744;SDS011;57015;50.120;-5.168;2022-12-18T07:57:56;18.17;;;4.47;;
69744;SDS011;57015;50.120;-5.168;2022-12-18T08:00:21;20.80;;;4.43;;
69744;SDS011;57015;50.120;-5.168;2022-12-18T08:02:47;30.60;;;4.53;;
69744;SDS011;57015;50.120;-5.168;2022-12-18T08:05:12;18.07;;;4.23;;
69744;SDS011;57015;50.120;-5.168;2022-12-18T08:07:38;24.88;;;4.10;;
69744;SDS011;57015;50.120;-5.168;2022-12-18T08:10:04;20.47;;;5.07;;
69744;SDS011;57015;50.120;-5.168;2022-12-18T08:12:30;21.90;;;3.63;;
69744;SDS011;57015;50.120;-5.168;2022-12-18T08:14:55;18.50;;;3.80;;
69744;SDS011;57015;50.120;-5.168;2022-12-18T08:17:20;23.10;;;3.70;;
69744;SDS011;57015;50.120;-5.168;2022-12-18T08:19:46;24.20;;;4.15;;
69744;SDS011;57015;50.120;-5.168;2022-12-18T08:22:11;18.67;;;4.40;;
69744;SDS011;57015;50.120;-5.168;2022-12-18T08:24:37;17.50;;;4.17;;
69744;SDS011;57015;50.120;-5.168;2022-12-18T08:27:02;23.40;;;3.63;;
69744;SDS011;57015;50.120;-5.168;2022-12-18T08:29:27;24.33;;;3.63;;
69744;SDS011;57015;50.120;-5.168;2022-12-18T08:31:53;19.27;;;3.13;;
69744;SDS011;57015;50.120;-5.168;2022-12-18T08:34:18;19.83;;;3.83;;
69744;SDS011;57015;50.120;-5.168;2022-12-18T08:36:44;22.87;;;3.37;;
69744;SDS011;57015;50.120;-5.168;2022-12-18T08:39:09;22.73;;;3.40;;
69744;SDS011;57015;50.120;-5.168;2022-12-18T08:41:34;21.53;;;3.47;;
69744;SDS011;57015;50.120;-5.168;2022-12-18T08:44:00;15.53;;;3.40;;
69744;SDS011;57015;50.120;-5.168;2022-12-18T08:46:44;24.55;;;3.13;;
69744;SDS011;57015;50.120;-5.168;2022-12-18T08:49:10;18.67;;;3.33;;
69744;SDS011;57015;50.120;-5.168;2022-12-18T08:51:36;25.27;;;3.35;;
69744;SDS011;57015;50.120;-5.168;2022-12-18T08:54:02;19.98;;;4.07;;
69744;SDS011;57015;50.120;-5.168;2022-12-18T08:56:28;18.27;;;3.30;;
69744;SDS011;57015;50.120;-5.168;2022-12-18T08:58:54;16.65;;;3.17;;
69744;SDS011;57015;50.120;-5.168;2022-12-18T09:01:20;17.67;;;2.77;;
69744;SDS011;57015;50.120;-5.168;2022-12-18T09:03:46;20.27;;;3.60;;
69744;SDS011;57015;50.120;-5.168;2022-12-18T09:06:16;25.00;;;4.18;;
69744;SDS011;57015;50.120;-5.168;2022-12-18T09:08:43;23.60;;;5.20;;
69744;SDS011;57015;50.120;-5.168;2022-12-18T09:11:22;24.90;;;3.87;;
69744;SDS011;57015;50.120;-5.168;2022-12-18T09:13:49;22.50;;;3.42;;
69744;SDS011;57015;50.120;-5.168;2022-12-18T09:16:15;25.70;;;3.30;;
69744;SDS011;57015;50.120;-5.168;2022-12-18T09:18:40;14.25;;;3.03;;
69744;SDS011;57015;50.120;-5.168;2022-12-18T09:21:16;11.10;;;3.03;;
69744;SDS011;57015;50.120;-5.168;2022-12-18T09:23:42;22.03;;;2.67;;
69744;SDS011;57015;50.120;-5.168;2022-12-18T09:26:08;18.40;;;2.78;;
69744;SDS011;57015;50.120;-5.168;2022-12-18T09:28:34;17.60;;;3.37;;
69744;SDS011;57015;50.120;-5.168;2022-12-18T09:31:03;16.93;;;3.03;;
69744;SDS011;57015;50.120;-5.168;2022-12-18T09:33:29;22.45;;;3.78;;
69744;SDS011;57015;50.120;-5.168;2022-12-18T09:35:54;17.47;;;4.17;;
69744;SDS011;57015;50.120;-5.168;2022-12-18T09:38:20;16.10;;;4.10;;
69744;SDS011;57015;50.120;-5.168;2022-12-18T09:40:52;19.10;;;3.70;;
69744;SDS011;57015;50.120;-5.168;2022-12-18T09:43:22;15.57;;;3.13;;
69744;SDS011;57015;50.120;-5.168;2022-12-18T09:45:53;16.83;;;2.97;;
69744;SDS011;57015;50.120;-5.168;2022-12-18T09:48:23;23.30;;;3.65;;
69744;SDS011;57015;50.120;-5.168;2022-12-18T09:50:51;17.88;;;2.92;;
69744;SDS011;57015;50.120;-5.168;2022-12-18T09:53:22;21.83;;;3.15;;
69744;SDS011;57015;50.120;-5.168;2022-12-18T09:55:50;18.33;;;2.97;;
69744;SDS011;57015;50.120;-5.168;2022-12-18T10:00:46;22.67;;;4.25;;
69744;SDS011;57015;50.120;-5.168;2022-12-18T10:03:13;24.33;;;3.30;;
69744;SDS011;57015;50.120;-5.168;2022-12-18T10:08:05;39.17;;;4.47;;
69744;SDS011;57015;50.120;-5.168;2022-12-18T10:13:26;29.70;;;4.40;;
69744;SDS011;57015;50.120;-5.168;2022-12-18T10:18:38;32.50;;;4.05;;
69744;SDS011;57015;50.120;-5.168;2022-12-18T10:21:12;25.55;;;3.70;;
69744;SDS011;57015;50.120;-5.168;2022-12-18T10:26:18;30.50;;;3.70;;
69744;SDS011;57015;50.120;-5.168;2022-12-18T10:28:44;27.42;;;3.83;;
69744;SDS011;57015;50.120;-5.168;2022-12-18T10:31:20;26.33;;;3.87;;
69744;SDS011;57015;50.120;-5.168;2022-12-18T10:33:46;28.70;;;3.35;;
69744;SDS011;57015;50.120;-5.168;2022-12-18T10:36:12;31.87;;;3.80;;
69744;SDS011;57015;50.120;-5.168;2022-12-18T10:38:38;31.60;;;5.90;;
69744;SDS011;57015;50.120;-5.168;2022-12-18T10:41:04;28.53;;;4.23;;
69744;SDS011;57015;50.120;-5.168;2022-12-18T10:46:52;39.55;;;5.20;;
69744;SDS011;57015;50.120;-5.168;2022-12-18T10:49:25;37.37;;;4.67;;
69744;SDS011;57015;50.120;-5.168;2022-12-18T10:54:45;34.65;;;5.13;;
69744;SDS011;57015;50.120;-5.168;2022-12-18T10:57:14;29.58;;;3.38;;
69744;SDS011;57015;50.120;-5.168;2022-12-18T10:59:52;37.17;;;4.20;;
69744;SDS011;57015;50.120;-5.168;2022-12-18T11:02:26;26.57;;;4.37;;
69744;SDS011;57015;50.120;-5.168;2022-12-18T11:05:02;32.75;;;4.32;;
69744;SDS011;57015;50.120;-5.168;2022-12-18T11:07:48;27.10;;;3.38;;
69744;SDS011;57015;50.120;-5.168;2022-12-18T11:10:16;22.20;;;3.72;;
69744;SDS011;57015;50.120;-5.168;2022-12-18T11:12:43;26.45;;;4.03;;
69744;SDS011;57015;50.120;-5.168;2022-12-18T11:15:21;40.83;;;4.37;;
69744;SDS011;57015;50.120;-5.168;2022-12-18T11:17:50;34.30;;;4.53;;
69744;SDS011;57015;50.120;-5.168;2022-12-18T11:20:26;26.40;;;3.47;;
69744;SDS011;57015;50.120;-5.168;2022-12-18T11:22:56;38.25;;;3.72;;
69744;SDS011;57015;50.120;-5.168;2022-12-18T11:25:22;32.15;;;4.25;;
69744;SDS011;57015;50.120;-5.168;2022-12-18T11:27:49;24.17;;;3.10;;
69744;SDS011;57015;50.120;-5.168;2022-12-18T11:30:27;24.13;;;3.70;;
69744;SDS011;57015;50.120;-5.168;2022-12-18T11:35:42;22.38;;;3.63;;
69744;SDS011;57015;50.120;-5.168;2022-12-18T11:38:26;30.83;;;3.65;;
69744;SDS011;57015;50.120;-5.168;2022-12-18T11:40:59;25.83;;;3.00;;
69744;SDS011;57015;50.120;-5.168;2022-12-18T11:43:36;27.67;;;3.30;;
69744;SDS011;57015;50.120;-5.168;2022-12-18T11:46:10;24.65;;;4.15;;
69744;SDS011;57015;50.120;-5.168;2022-12-18T11:51:12;33.33;;;3.58;;
69744;SDS011;57015;50.120;-5.168;2022-12-18T11:53:40;27.73;;;3.43;;
69744;SDS011;57015;50.120;-5.168;2022-12-18T12:07:20;25.95;;;3.88;;
69744;SDS011;57015;50.120;-5.168;2022-12-18T12:15:57;27.85;;;3.08;;
69744;SDS011;57015;50.120;-5.168;2022-12-18T12:32:09;20.15;;;2.30;;
69744;SDS011;57015;50.120;-5.168;2022-12-18T12:37:36;23.25;;;3.35;;
69744;SDS011;57015;50.120;-5.168;2022-12-18T12:40:10;23.37;;;2.40;;
69744;SDS011;57015;50.120;-5.168;2022-12-18T12:43:21;18.02;;;2.05;;
69744;SDS011;57015;50.120;-5.168;2022-12-18T12:46:00;21.48;;;3.40;;
69744;SDS011;57015;50.120;-5.168;2022-12-18T12:48:40;26.13;;;3.28;;
69744;SDS011;57015;50.120;-5.168;2022-12-18T12:51:24;27.88;;;3.78;;
69744;SDS011;57015;50.120;-5.168;2022-12-18T12:53:51;22.13;;;2.87;;
69744;SDS011;57015;50.120;-5.168;2022-12-18T12:56:19;24.40;;;2.67;;
69744;SDS011;57015;50.120;-5.168;2022-12-18T13:09:33;23.80;;;3.25;;
69744;SDS011;57015;50.120;-5.168;2022-12-18T13:12:03;29.25;;;3.88;;
69744;SDS011;57015;50.120;-5.168;2022-12-18T13:14:48;21.33;;;3.00;;
69744;SDS011;57015;50.120;-5.168;2022-12-18T13:19:40;35.38;;;3.30;;
69744;SDS011;57015;50.120;-5.168;2022-12-18T13:22:12;33.37;;;4.90;;
69744;SDS011;57015;50.120;-5.168;2022-12-18T13:24:49;24.25;;;4.18;;
69744;SDS011;57015;50.120;-5.168;2022-12-18T13:45:45;26.13;;;3.30;;
69744;SDS011;57015;50.120;-5.168;2022-12-18T13:48:15;30.45;;;3.95;;
69744;SDS011;57015;50.120;-5.168;2022-12-18T13:50:42;23.73;;;3.00;;
69744;SDS011;57015;50.120;-5.168;2022-12-18T13:53:12;25.83;;;3.57;;
69744;SDS011;57015;50.120;-5.168;2022-12-18T13:55:45;25.40;;;2.80;;
69744;SDS011;57015;50.120;-5.168;2022-12-18T13:58:11;15.73;;;3.17;;
69744;SDS011;57015;50.120;-5.168;2022-12-18T14:00:40;21.33;;;2.85;;
69744;SDS011;57015;50.120;-5.168;2022-12-18T14:03:21;25.70;;;3.50;;
69744;SDS011;57015;50.120;-5.168;2022-12-18T14:05:54;12.00;;;2.80;;
69744;SDS011;57015;50.120;-5.168;2022-12-18T14:08:21;20.38;;;2.97;;
69744;SDS011;57015;50.120;-5.168;2022-12-18T14:10:48;18.65;;;2.45;;
69744;SDS011;57015;50.120;-5.168;2022-12-18T14:13:36;19.73;;;2.80;;
69744;SDS011;57015;50.120;-5.168;2022-12-18T14:16:07;31.60;;;3.07;;
69744;SDS011;57015;50.120;-5.168;2022-12-18T14:18:38;29.33;;;4.05;;
69744;SDS011;57015;50.120;-5.168;2022-12-18T14:21:19;25.98;;;3.60;;
69744;SDS011;57015;50.120;-5.168;2022-12-18T14:23:45;20.55;;;3.58;;
69744;SDS011;57015;50.120;-5.168;2022-12-18T14:28:52;27.77;;;3.70;;
69744;SDS011;57015;50.120;-5.168;2022-12-18T14:31:19;31.77;;;3.88;;
69744;SDS011;57015;50.120;-5.168;2022-12-18T14:33:45;19.83;;;4.23;;
69744;SDS011;57015;50.120;-5.168;2022-12-18T14:36:13;22.48;;;2.97;;
69744;SDS011;57015;50.120;-5.168;2022-12-18T14:38:42;29.67;;;3.70;;
69744;SDS011;57015;50.120;-5.168;2022-12-18T14:41:14;24.10;;;4.18;;
69744;SDS011;57015;50.120;-5.168;2022-12-18T14:43:42;32.13;;;3.93;;
69744;SDS011;57015;50.120;-5.168;2022-12-18T14:48:49;27.50;;;3.00;;
69744;SDS011;57015;50.120;-5.168;2022-12-18T14:51:19;31.30;;;4.53;;
69744;SDS011;57015;50.120;-5.168;2022-12-18T14:53:46;28.60;;;4.38;;
69744;SDS011;57015;50.120;-5.168;2022-12-18T14:56:14;32.50;;;3.33;;
69744;SDS011;57015;50.120;-5.168;2022-12-18T14:58:57;20.83;;;3.07;;
69744;SDS011;57015;50.120;-5.168;2022-12-18T15:01:28;27.33;;;3.22;;
69744;SDS011;57015;50.120;-5.168;2022-12-18T15:03:56;23.38;;;3.40;;
69744;SDS011;57015;50.120;-5.168;2022-12-18T15:06:26;18.08;;;2.75;;
69744;SDS011;57015;50.120;-5.168;2022-12-18T15:09:18;27.30;;;3.95;;
69744;SDS011;57015;50.120;-5.168;2022-12-18T15:11:47;20.20;;;3.17;;
69744;SDS011;57015;50.120;-5.168;2022-12-18T15:17:05;18.45;;;2.85;;
69744;SDS011;57015;50.120;-5.168;2022-12-18T15:19:44;19.00;;;2.60;;
69744;SDS011;57015;50.120;-5.168;2022-12-18T15:22:18;15.43;;;2.15;;
69744;SDS011;57015;50.120;-5.168;2022-12-18T15:24:50;15.07;;;2.00;;
69744;SDS011;57015;50.120;-5.168;2022-12-18T15:27:35;16.33;;;2.00;;
69744;SDS011;57015;50.120;-5.168;2022-12-18T15:30:24;21.35;;;3.22;;
69744;SDS011;57015;50.120;-5.168;2022-12-18T15:32:49;15.05;;;3.05;;
69744;SDS011;57015;50.120;-5.168;2022-12-18T15:35:20;17.38;;;2.80;;
69744;SDS011;57015;50.120;-5.168;2022-12-18T15:37:50;19.65;;;3.00;;
69744;SDS011;57015;50.120;-5.168;2022-12-18T15:40:20;24.43;;;2.97;;
69744;SDS011;57015;50.120;-5.168;2022-12-18T15:42:47;18.88;;;4.00;;
69744;SDS011;57015;50.120;-5.168;2022-12-18T15:45:31;21.58;;;3.30;;
69744;SDS011;57015;50.120;-5.168;2022-12-18T15:47:57;20.17;;;3.07;;
69744;SDS011;57015;50.120;-5.168;2022-12-18T15:50:22;19.87;;;2.93;;
69744;SDS011;57015;50.120;-5.168;2022-12-18T15:52:48;16.75;;;2.75;;
69744;SDS011;57015;50.120;-5.168;2022-12-18T15:55:22;17.92;;;2.95;;
69744;SDS011;57015;50.120;-5.168;2022-12-18T15:58:07;21.00;;;3.83;;
69744;SDS011;57015;50.120;-5.168;2022-12-18T16:00:35;24.83;;;4.53;;
69744;SDS011;57015;50.120;-5.168;2022-12-18T16:03:02;20.90;;;3.03;;
69744;SDS011;57015;50.120;-5.168;2022-12-18T16:05:28;14.32;;;3.10;;
69744;SDS011;57015;50.120;-5.168;2022-12-18T16:07:54;25.83;;;3.00;;
69744;SDS011;57015;50.120;-5.168;2022-12-18T16:10:19;20.90;;;3.30;;
69744;SDS011;57015;50.120;-5.168;2022-12-18T16:12:45;21.58;;;3.25;;
69744;SDS011;57015;50.120;-5.168;2022-12-18T16:15:14;20.50;;;2.83;;
69744;SDS011;57015;50.120;-5.168;2022-12-18T16:17:41;24.50;;;3.10;;
69744;SDS011;57015;50.120;-5.168;2022-12-18T16:20:17;31.70;;;4.15;;
69744;SDS011;57015;50.120;-5.168;2022-12-18T16:22:45;22.20;;;3.50;;
69744;SDS011;57015;50.120;-5.168;2022-12-18T16:25:16;22.38;;;4.03;;
69744;SDS011;57015;50.120;-5.168;2022-12-18T16:27:49;25.05;;;3.33;;
69744;SDS011;57015;50.120;-5.168;2022-12-18T16:30:15;35.17;;;5.05;;
69744;SDS011;57015;50.120;-5.168;2022-12-18T16:32:43;34.10;;;4.80;;
69744;SDS011;57015;50.120;-5.168;2022-12-18T16:35:12;29.27;;;4.90;;
69744;SDS011;57015;50.120;-5.168;2022-12-18T16:37:39;25.65;;;4.72;;
69744;SDS011;57015;50.120;-5.168;2022-12-18T16:40:09;26.95;;;4.65;;
69744;SDS011;57015;50.120;-5.168;2022-12-18T16:42:36;30.47;;;5.13;;
69744;SDS011;57015;50.120;-5.168;2022-12-18T16:45:03;26.20;;;4.50;;
69744;SDS011;57015;50.120;-5.168;2022-12-18T16:47:29;24.90;;;4.07;;